Weather at V.N.Milfontes

Public forecast

Using degrees Celsius for public forecast. Weather courtesy of forecast.io.

Closest aviation weather report (METAR) to V.N.Milfontes

Closest report is Beja Airport / Airbase, 45.5 nm (84.4 km) ENE. Retrieved 2020/10/29 13:00 UTC (10 minutes ago):

LPBJ 291300Z 08003KT 010V170 9999 FEW018 23/14 Q1024

Closest aviation forecast (TAF) to V.N.Milfontes

Closest forecast is Beja Airport / Airbase, 45.5 nm (84.4 km) ENE. Retrieved 2020/10/29 12:18 UTC (52 minutes ago):

TAF LPBJ 291110Z 2912/3012 09008KT 9999 FEW015 BECMG 2912/2914 VRB02KT CAVOK TEMPO 2916/2921 32007KT PROB30 3000/3008 05005KT 3000 BCFG SCT002